createdAt,value
2023-03-17T00:01:44.836Z,99.90
2023-03-17T00:04:12.630Z,99.90
2023-03-17T00:06:40.642Z,94.80
2023-03-17T00:09:14.967Z,99.90
2023-03-17T00:11:43.282Z,95.40
2023-03-17T00:14:10.423Z,99.90
2023-03-17T00:16:42.975Z,95.50
2023-03-17T00:19:33.236Z,99.90
2023-03-17T00:22:01.527Z,98.90
2023-03-17T00:24:29.273Z,99.90
2023-03-17T00:26:56.321Z,97.40
2023-03-17T00:29:23.965Z,98.20
2023-03-17T00:31:51.105Z,99.90
2023-03-17T00:34:19.335Z,98.60
2023-03-17T00:36:51.157Z,99.90
2023-03-17T00:39:18.621Z,99.90
2023-03-17T00:44:12.160Z,99.90
2023-03-17T00:46:41.363Z,99.90
2023-03-17T00:49:26.713Z,96.50
2023-03-17T00:51:54.227Z,99.90
2023-03-17T00:54:21.034Z,95.20
2023-03-17T00:56:50.848Z,93.90
2023-03-17T00:59:19.296Z,99.90
2023-03-17T01:01:47.608Z,97.90
2023-03-17T01:04:15.560Z,99.90
2023-03-17T01:06:43.346Z,94.80
2023-03-17T01:09:16.271Z,98.50
2023-03-17T01:11:44.078Z,98.50
2023-03-17T01:14:11.895Z,99.40
2023-03-17T01:16:40.713Z,99.90
2023-03-17T01:19:07.496Z,99.80
2023-03-17T01:21:34.599Z,99.90
2023-03-17T01:24:01.622Z,99.90
2023-03-17T01:26:28.582Z,99.90
2023-03-17T01:28:55.439Z,99.60
2023-03-17T01:31:23.459Z,95.90
2023-03-17T01:33:51.291Z,99.90
2023-03-17T01:36:18.471Z,99.10
2023-03-17T01:38:48.143Z,97.40
2023-03-17T01:41:15.023Z,98.10
2023-03-17T01:43:42.579Z,99.90
2023-03-17T01:46:35.327Z,95.90
2023-03-17T01:49:14.528Z,99.90
2023-03-17T01:51:46.758Z,99.90
2023-03-17T01:54:34.773Z,99.90
2023-03-17T01:57:10.552Z,99.90
2023-03-17T01:59:43.623Z,94.40
2023-03-17T02:02:12.683Z,99.90
2023-03-17T02:04:40.386Z,99.60
2023-03-17T02:07:07.625Z,99.90
2023-03-17T02:09:34.881Z,97.20
2023-03-17T02:12:03.745Z,99.90
2023-03-17T02:14:30.678Z,99.70
2023-03-17T02:16:57.598Z,99.20
2023-03-17T02:19:25.049Z,99.90
2023-03-17T02:21:55.007Z,99.90
2023-03-17T02:24:28.990Z,99.30
2023-03-17T02:27:00.939Z,99.90
2023-03-17T02:29:27.746Z,99.90
2023-03-17T02:31:54.634Z,99.90
2023-03-17T02:34:21.784Z,99.90
2023-03-17T02:36:48.676Z,99.90
2023-03-17T02:39:15.404Z,99.90
2023-03-17T02:41:42.487Z,99.90
2023-03-17T02:44:09.294Z,99.90
2023-03-17T02:46:36.163Z,99.90
2023-03-17T02:49:03.446Z,99.90
2023-03-17T02:51:30.355Z,99.90
2023-03-17T02:53:57.102Z,99.90
2023-03-17T02:56:23.856Z,99.70
2023-03-17T02:58:51.923Z,99.90
2023-03-17T03:01:18.802Z,99.90
2023-03-17T03:03:45.922Z,99.90
2023-03-17T03:06:12.675Z,99.90
2023-03-17T03:08:39.322Z,99.90
2023-03-17T03:11:06.287Z,99.90
2023-03-17T03:13:33.087Z,99.90
2023-03-17T03:16:00.384Z,99.90
2023-03-17T03:18:27.317Z,99.90
2023-03-17T03:20:54.035Z,99.90
2023-03-17T03:23:20.944Z,98.00
2023-03-17T03:25:47.873Z,99.90
2023-03-17T03:28:14.782Z,99.90
2023-03-17T03:30:44.552Z,99.90
2023-03-17T03:33:13.829Z,99.90
2023-03-17T03:35:40.841Z,99.90
2023-03-17T03:38:08.466Z,99.90
2023-03-17T03:40:36.920Z,99.90
2023-03-17T03:43:19.884Z,99.90
2023-03-17T03:45:49.964Z,99.90
2023-03-17T03:48:16.881Z,99.90
2023-03-17T03:50:43.722Z,99.90
2023-03-17T03:53:10.671Z,99.90
2023-03-17T03:55:37.537Z,99.90
2023-03-17T03:58:04.286Z,99.90
2023-03-17T04:00:32.114Z,99.90
2023-03-17T04:03:00.255Z,99.90
2023-03-17T04:05:27.043Z,99.90
2023-03-17T04:07:53.898Z,99.90
2023-03-17T04:10:20.639Z,99.90
2023-03-17T04:12:47.280Z,99.90
2023-03-17T04:15:16.601Z,99.90
2023-03-17T04:17:43.860Z,99.90
2023-03-17T04:20:11.555Z,99.90
2023-03-17T04:22:38.549Z,99.90
2023-03-17T04:25:05.750Z,99.90
2023-03-17T04:27:33.761Z,99.90
2023-03-17T04:30:01.748Z,99.90
2023-03-17T04:32:28.517Z,99.90
2023-03-17T04:34:56.028Z,99.90
2023-03-17T04:37:22.708Z,99.90
2023-03-17T04:39:49.599Z,99.20
2023-03-17T04:42:16.526Z,99.90
2023-03-17T04:44:43.361Z,99.90
2023-03-17T04:47:10.755Z,99.90
2023-03-17T04:49:37.502Z,96.10
2023-03-17T04:52:04.363Z,97.40
2023-03-17T04:54:31.152Z,99.90
2023-03-17T04:56:57.925Z,99.90
2023-03-17T04:59:24.574Z,99.90
2023-03-17T05:01:52.227Z,98.60
2023-03-17T05:04:30.822Z,99.60
2023-03-17T05:06:58.474Z,99.90
2023-03-17T05:09:26.862Z,99.90
2023-03-17T05:11:53.689Z,99.90
2023-03-17T05:14:20.848Z,99.90
2023-03-17T05:16:48.820Z,99.90
2023-03-17T05:19:16.593Z,99.90
2023-03-17T05:21:43.736Z,99.90
2023-03-17T05:24:10.965Z,99.90
2023-03-17T05:26:37.849Z,99.90
2023-03-17T05:29:04.971Z,99.90
2023-03-17T05:31:32.863Z,99.90
2023-03-17T05:34:00.132Z,96.30
2023-03-17T05:36:26.965Z,99.90
2023-03-17T05:38:53.779Z,99.90
2023-03-17T05:41:20.563Z,99.90
2023-03-17T05:43:48.305Z,99.90
2023-03-17T05:46:15.536Z,99.90
2023-03-17T05:48:42.467Z,97.40
2023-03-17T05:51:09.262Z,99.90
2023-03-17T05:53:39.019Z,99.90
2023-03-17T05:56:06.572Z,99.90
2023-03-17T05:58:33.345Z,99.90
2023-03-17T06:01:00.180Z,99.90
2023-03-17T06:03:27.486Z,99.90
2023-03-17T06:05:54.399Z,99.90
2023-03-17T06:08:21.299Z,99.90
2023-03-17T06:10:48.369Z,99.90
2023-03-17T06:13:15.581Z,99.90
2023-03-17T06:15:43.159Z,99.90
2023-03-17T06:18:09.989Z,99.90
2023-03-17T06:20:37.258Z,99.90
2023-03-17T06:23:05.884Z,99.90
2023-03-17T06:25:34.964Z,99.90
2023-03-17T06:28:03.809Z,99.90
2023-03-17T06:30:32.976Z,99.90
2023-03-17T06:33:00.456Z,99.90
2023-03-17T06:35:27.630Z,95.80
2023-03-17T06:37:54.883Z,99.90
2023-03-17T06:40:21.778Z,99.90
2023-03-17T06:42:48.614Z,99.90
2023-03-17T06:45:15.502Z,99.90
2023-03-17T06:47:42.255Z,99.90
2023-03-17T06:50:11.299Z,98.20
2023-03-17T06:52:39.205Z,95.50
2023-03-17T06:55:07.241Z,97.60
2023-03-17T06:57:34.213Z,97.20
2023-03-17T07:00:01.159Z,99.20
2023-03-17T07:02:28.029Z,97.30
2023-03-17T07:04:54.897Z,96.60
2023-03-17T07:07:21.600Z,91.60
2023-03-17T07:09:48.261Z,95.80
2023-03-17T07:12:15.751Z,86.80
2023-03-17T07:14:42.553Z,88.80
2023-03-17T07:17:13.899Z,92.00
2023-03-17T07:19:41.374Z,90.70
2023-03-17T07:22:11.253Z,94.90
2023-03-17T07:24:38.086Z,95.50
2023-03-17T07:27:05.026Z,98.50
2023-03-17T07:29:33.796Z,99.90
2023-03-17T07:32:01.392Z,92.50
2023-03-17T07:34:28.407Z,98.90
2023-03-17T07:36:55.509Z,98.60
2023-03-17T07:39:22.342Z,92.90
2023-03-17T07:41:55.366Z,98.40
2023-03-17T07:44:23.574Z,92.70
2023-03-17T07:46:51.519Z,96.10
2023-03-17T07:49:27.636Z,98.00
2023-03-17T07:52:01.078Z,93.80
2023-03-17T07:54:29.233Z,90.60
2023-03-17T07:56:56.471Z,96.50
2023-03-17T07:59:23.560Z,98.70
2023-03-17T08:01:50.761Z,90.50
2023-03-17T08:04:18.598Z,98.40
2023-03-17T08:06:46.955Z,90.70
2023-03-17T08:09:13.613Z,90.00
2023-03-17T08:11:40.436Z,90.50
2023-03-17T08:14:07.812Z,90.30
2023-03-17T08:16:34.634Z,88.10
2023-03-17T08:19:03.867Z,91.50
2023-03-17T08:21:31.283Z,92.90
2023-03-17T08:23:58.171Z,90.30
2023-03-17T08:26:25.505Z,90.20
2023-03-17T08:28:52.371Z,85.80
2023-03-17T08:31:21.208Z,90.70
2023-03-17T08:33:51.888Z,93.80
2023-03-17T08:36:20.635Z,95.80
2023-03-17T08:38:48.359Z,93.60
2023-03-17T08:41:18.316Z,96.40
2023-03-17T08:43:46.677Z,87.20
2023-03-17T08:46:23.333Z,96.50
2023-03-17T08:48:51.608Z,93.80
2023-03-17T08:51:21.478Z,97.00
2023-03-17T08:53:49.816Z,94.40
2023-03-17T08:56:16.937Z,90.00
2023-03-17T08:58:44.207Z,97.00
2023-03-17T09:01:11.919Z,90.20
2023-03-17T09:03:40.771Z,88.60
2023-03-17T09:06:11.169Z,91.70
2023-03-17T09:08:39.866Z,96.50
2023-03-17T09:11:08.431Z,96.00
2023-03-17T09:13:37.922Z,94.50
2023-03-17T09:16:05.882Z,93.10
2023-03-17T09:18:33.192Z,91.50
2023-03-17T09:21:00.240Z,94.20
2023-03-17T09:23:28.440Z,92.10
2023-03-17T09:25:55.286Z,94.10
2023-03-17T09:28:22.053Z,96.60
2023-03-17T09:30:49.852Z,95.30
2023-03-17T09:33:17.726Z,93.60
2023-03-17T09:35:44.478Z,92.40
2023-03-17T09:38:11.889Z,91.00
2023-03-17T09:40:53.088Z,93.70
2023-03-17T09:43:33.006Z,90.80
2023-03-17T09:46:25.246Z,94.80
2023-03-17T09:49:33.955Z,90.50
2023-03-17T09:52:01.309Z,96.10
2023-03-17T09:54:33.966Z,93.30
2023-03-17T09:57:12.556Z,95.00
2023-03-17T09:59:44.061Z,92.00
2023-03-17T10:02:28.671Z,91.20
2023-03-17T10:04:57.327Z,91.30
2023-03-17T10:07:42.558Z,87.80
2023-03-17T10:10:22.751Z,86.80
2023-03-17T10:13:27.511Z,93.50
2023-03-17T10:16:29.665Z,92.60
2023-03-17T10:19:02.631Z,95.60
2023-03-17T10:21:32.840Z,91.30
2023-03-17T10:24:00.668Z,92.80
2023-03-17T10:26:34.601Z,94.60
2023-03-17T10:29:06.040Z,91.90
2023-03-17T10:31:35.501Z,93.80
2023-03-17T10:34:33.603Z,94.30
2023-03-17T10:37:15.228Z,93.20
2023-03-17T10:39:48.318Z,94.40
2023-03-17T10:42:27.447Z,94.60
2023-03-17T10:45:02.006Z,94.50
2023-03-17T10:47:34.234Z,93.90
2023-03-17T10:50:21.021Z,92.90
2023-03-17T10:52:53.647Z,89.40
2023-03-17T10:55:23.148Z,93.20
2023-03-17T10:57:53.632Z,93.50
2023-03-17T11:00:22.175Z,93.20
2023-03-17T11:03:03.636Z,90.40
2023-03-17T11:05:30.583Z,93.60
2023-03-17T11:08:18.512Z,86.80
2023-03-17T11:10:45.791Z,90.30
2023-03-17T11:13:17.439Z,90.50
2023-03-17T11:15:54.365Z,93.80
2023-03-17T11:18:34.533Z,93.30
2023-03-17T11:21:31.319Z,91.40
2023-03-17T11:24:14.104Z,91.60
2023-03-17T11:26:54.397Z,91.60
2023-03-17T11:29:46.414Z,89.20
2023-03-17T11:32:33.573Z,91.30
2023-03-17T11:35:18.913Z,93.70
2023-03-17T11:38:04.543Z,93.90
2023-03-17T11:40:38.621Z,91.30
2023-03-17T11:43:27.011Z,90.40
2023-03-17T11:45:58.090Z,93.90
2023-03-17T11:48:47.263Z,92.10
2023-03-17T11:51:39.087Z,91.10
2023-03-17T11:54:43.323Z,89.00
2023-03-17T11:57:20.378Z,93.60
2023-03-17T12:00:07.343Z,92.90
2023-03-17T12:02:45.361Z,93.80
2023-03-17T12:05:20.167Z,92.30
2023-03-17T12:08:03.886Z,93.20
2023-03-17T12:10:37.874Z,94.40
2023-03-17T12:13:13.629Z,92.40
2023-03-17T12:15:50.942Z,92.40
2023-03-17T12:18:32.758Z,90.50
2023-03-17T12:21:11.956Z,88.60
2023-03-17T12:23:49.574Z,90.00
2023-03-17T12:26:20.535Z,93.60
2023-03-17T12:28:56.333Z,87.20
2023-03-17T12:31:39.281Z,93.10
2023-03-17T12:34:42.647Z,87.20
2023-03-17T12:37:09.907Z,92.70
2023-03-17T12:39:37.971Z,91.70
2023-03-17T12:42:34.644Z,92.80
2023-03-17T12:45:32.750Z,91.00
2023-03-17T12:48:08.360Z,93.10
2023-03-17T12:51:05.903Z,95.00
2023-03-17T12:53:36.309Z,93.10
2023-03-17T12:56:10.851Z,90.70
2023-03-17T12:58:38.854Z,90.20
2023-03-17T13:01:38.038Z,93.40
2023-03-17T13:04:13.543Z,92.60
2023-03-17T13:07:03.998Z,90.90
2023-03-17T13:09:37.354Z,89.60
2023-03-17T13:12:06.784Z,91.30
2023-03-17T13:14:47.725Z,93.50
2023-03-17T13:17:20.288Z,93.10
2023-03-17T13:20:12.614Z,94.30
2023-03-17T13:22:45.024Z,93.00
2023-03-17T13:25:38.571Z,93.30
2023-03-17T13:28:11.894Z,88.70
2023-03-17T13:30:38.800Z,91.30
2023-03-17T13:33:09.596Z,89.60
2023-03-17T13:35:46.390Z,89.40
2023-03-17T13:38:43.601Z,91.70
2023-03-17T13:41:38.276Z,91.30
2023-03-17T13:44:29.436Z,92.70
2023-03-17T13:47:29.535Z,90.10
2023-03-17T13:50:03.852Z,91.70
2023-03-17T13:52:41.540Z,92.50
2023-03-17T13:55:23.828Z,91.10
2023-03-17T13:58:11.313Z,91.50
2023-03-17T14:00:43.587Z,92.40
2023-03-17T14:03:49.088Z,93.50
2023-03-17T14:06:17.946Z,92.10
2023-03-17T14:08:50.622Z,91.00
2023-03-17T14:11:28.846Z,93.40
2023-03-17T14:14:04.446Z,92.90
2023-03-17T14:16:34.907Z,90.50
2023-03-17T14:19:21.855Z,91.90
2023-03-17T14:21:48.918Z,91.00
2023-03-17T14:24:25.387Z,92.90
2023-03-17T14:26:52.944Z,92.60
2023-03-17T14:29:24.504Z,92.30
2023-03-17T14:31:59.035Z,92.50
2023-03-17T14:34:26.048Z,90.10
2023-03-17T14:36:52.798Z,90.20
2023-03-17T14:39:25.756Z,89.50
2023-03-17T14:42:04.586Z,92.10
2023-03-17T14:44:39.343Z,92.70
2023-03-17T14:47:13.864Z,91.70
2023-03-17T14:49:40.970Z,89.10
2023-03-17T14:52:27.840Z,91.20
2023-03-17T14:55:00.127Z,92.70
2023-03-17T14:57:33.293Z,88.80
2023-03-17T15:00:04.248Z,88.50
2023-03-17T15:02:34.883Z,88.80
2023-03-17T15:05:28.684Z,86.70
2023-03-17T15:07:55.433Z,90.30
2023-03-17T15:10:31.266Z,91.50
2023-03-17T15:13:03.199Z,88.50
2023-03-17T15:15:33.588Z,92.50
2023-03-17T15:18:04.854Z,89.30
2023-03-17T15:20:35.387Z,92.10
2023-03-17T15:23:17.195Z,92.50
2023-03-17T15:25:51.267Z,89.00
2023-03-17T15:28:20.980Z,89.80
2023-03-17T15:30:50.930Z,90.20
2023-03-17T15:33:29.763Z,87.80
2023-03-17T15:36:00.047Z,91.40
2023-03-17T15:38:27.393Z,90.70
2023-03-17T15:40:55.027Z,92.10
2023-03-17T15:43:22.774Z,89.90
2023-03-17T15:46:21.586Z,91.80
2023-03-17T15:48:49.500Z,91.90
2023-03-17T15:51:17.093Z,91.70
2023-03-17T15:53:44.137Z,90.10
2023-03-17T15:56:21.968Z,87.30
2023-03-17T15:58:51.469Z,88.00
2023-03-17T16:01:18.977Z,91.00
2023-03-17T16:03:47.194Z,86.70
2023-03-17T16:06:19.260Z,88.90
2023-03-17T16:08:46.440Z,87.90
2023-03-17T16:11:15.770Z,89.50
2023-03-17T16:13:43.700Z,90.50
2023-03-17T16:16:17.956Z,88.10
2023-03-17T16:18:46.974Z,88.50
2023-03-17T16:21:13.946Z,88.70
2023-03-17T16:23:40.825Z,88.70
2023-03-17T16:26:15.659Z,88.00
2023-03-17T16:28:46.133Z,90.10
2023-03-17T16:31:25.857Z,90.10
2023-03-17T16:33:53.922Z,88.80
2023-03-17T16:36:22.033Z,88.40
2023-03-17T16:38:49.617Z,89.40
2023-03-17T16:41:25.330Z,88.50
2023-03-17T16:44:11.773Z,89.20
2023-03-17T16:46:38.821Z,89.00
2023-03-17T16:49:06.344Z,88.70
2023-03-17T16:51:33.073Z,88.60
2023-03-17T16:53:59.729Z,90.00
2023-03-17T16:56:27.489Z,90.20
2023-03-17T16:58:54.242Z,90.20
2023-03-17T17:01:27.028Z,90.10
2023-03-17T17:03:54.279Z,90.70
2023-03-17T17:06:23.168Z,91.20
2023-03-17T17:08:50.807Z,90.80
2023-03-17T17:11:18.852Z,91.40
2023-03-17T17:13:48.006Z,91.00
2023-03-17T17:16:25.417Z,91.80
2023-03-17T17:18:52.287Z,92.00
2023-03-17T17:21:19.099Z,91.80
2023-03-17T17:23:46.048Z,92.00
2023-03-17T17:26:14.163Z,92.30
2023-03-17T17:28:40.909Z,92.60
2023-03-17T17:31:09.173Z,95.20
2023-03-17T17:33:37.073Z,95.30
2023-03-17T17:36:06.322Z,96.10
2023-03-17T17:38:33.446Z,96.50
2023-03-17T17:41:05.827Z,97.30
2023-03-17T17:43:33.239Z,98.20
2023-03-17T17:46:00.934Z,97.50
2023-03-17T17:48:28.787Z,96.60
2023-03-17T17:50:57.019Z,96.60
2023-03-17T17:53:24.187Z,95.50
2023-03-17T17:55:51.638Z,95.60
2023-03-17T17:58:22.103Z,95.80
2023-03-17T18:00:49.376Z,96.00
2023-03-17T18:03:16.303Z,95.70
2023-03-17T18:05:43.336Z,96.00
2023-03-17T18:08:13.747Z,96.00
2023-03-17T18:10:40.356Z,95.80
2023-03-17T18:13:07.085Z,95.70
2023-03-17T18:15:34.842Z,95.30
2023-03-17T18:18:02.647Z,95.50
2023-03-17T18:20:30.296Z,95.20
2023-03-17T18:22:57.761Z,94.70
2023-03-17T18:25:27.886Z,95.00
2023-03-17T18:27:55.602Z,95.10
2023-03-17T18:30:28.509Z,95.00
2023-03-17T18:33:09.275Z,94.90
2023-03-17T18:35:36.555Z,95.00
2023-03-17T18:38:04.520Z,94.90
2023-03-17T18:40:31.414Z,94.90
2023-03-17T18:42:58.207Z,95.50
2023-03-17T18:45:25.304Z,95.20
2023-03-17T18:47:52.157Z,94.70
2023-03-17T18:50:21.745Z,95.40
2023-03-17T18:52:49.023Z,95.50
2023-03-17T18:55:17.109Z,95.60
2023-03-17T18:57:44.944Z,96.00
2023-03-17T19:00:14.676Z,95.60
2023-03-17T19:02:41.599Z,96.20
2023-03-17T19:05:09.736Z,94.90
2023-03-17T19:07:37.973Z,95.50
2023-03-17T19:10:07.216Z,95.80
2023-03-17T19:12:34.050Z,96.20
2023-03-17T19:15:01.721Z,96.50
2023-03-17T19:17:28.700Z,96.60
2023-03-17T19:19:55.835Z,95.20
2023-03-17T19:22:22.992Z,96.20
2023-03-17T19:24:50.283Z,95.80
2023-03-17T19:27:17.905Z,96.00
2023-03-17T19:29:44.973Z,95.90
2023-03-17T19:32:11.702Z,95.50
2023-03-17T19:34:38.461Z,95.60
2023-03-17T19:37:05.713Z,96.50
2023-03-17T19:39:33.873Z,95.50
2023-03-17T19:42:00.918Z,96.10
2023-03-17T19:44:27.736Z,95.90
2023-03-17T19:46:54.769Z,96.00
2023-03-17T19:49:22.275Z,96.10
2023-03-17T19:51:49.699Z,95.70
2023-03-17T19:54:18.643Z,96.40
2023-03-17T19:56:45.707Z,95.70
2023-03-17T19:59:12.662Z,96.40
2023-03-17T20:01:42.619Z,96.80
2023-03-17T20:04:11.541Z,96.20
2023-03-17T20:06:38.478Z,96.20
2023-03-17T20:09:08.755Z,96.30
2023-03-17T20:11:36.024Z,96.20
2023-03-17T20:14:03.258Z,96.30
2023-03-17T20:16:33.473Z,96.10
2023-03-17T20:19:01.275Z,96.10
2023-03-17T20:21:28.225Z,96.30
2023-03-17T20:23:55.620Z,96.40
2023-03-17T20:26:22.804Z,96.40
2023-03-17T20:28:49.486Z,96.10
2023-03-17T20:31:17.170Z,96.00
2023-03-17T20:33:44.026Z,96.40
2023-03-17T20:36:12.841Z,96.20
2023-03-17T20:38:40.636Z,96.10
2023-03-17T20:41:14.215Z,96.20
2023-03-17T20:43:41.609Z,96.40
2023-03-17T20:46:13.738Z,96.30
2023-03-17T20:48:41.219Z,96.60
2023-03-17T20:51:10.114Z,96.70
2023-03-17T20:53:37.523Z,96.50
2023-03-17T20:56:04.742Z,96.20
2023-03-17T20:58:31.490Z,96.10
2023-03-17T21:00:58.534Z,95.80
2023-03-17T21:03:25.399Z,97.00
2023-03-17T21:05:53.395Z,97.00
2023-03-17T21:08:20.053Z,96.80
2023-03-17T21:10:46.921Z,96.90
2023-03-17T21:13:13.746Z,96.80
2023-03-17T21:15:41.187Z,96.30
2023-03-17T21:18:08.720Z,96.80
2023-03-17T21:20:35.544Z,97.70
2023-03-17T21:23:04.584Z,97.70
2023-03-17T21:25:31.474Z,96.60
2023-03-17T21:27:58.267Z,98.00
2023-03-17T21:30:25.066Z,96.80
2023-03-17T21:32:53.541Z,96.80
2023-03-17T21:35:20.756Z,96.10
2023-03-17T21:37:47.735Z,95.00
2023-03-17T21:40:15.605Z,96.80
2023-03-17T21:42:43.766Z,95.40
2023-03-17T21:45:10.738Z,95.30
2023-03-17T21:47:40.897Z,96.30
2023-03-17T21:50:08.197Z,95.70
2023-03-17T21:52:34.861Z,95.90
2023-03-17T21:55:01.593Z,96.70
2023-03-17T21:57:29.544Z,95.80
2023-03-17T21:59:56.325Z,96.20
2023-03-17T22:02:23.569Z,96.80
2023-03-17T22:04:50.298Z,96.10
2023-03-17T22:07:18.059Z,96.30
2023-03-17T22:09:45.442Z,96.90
2023-03-17T22:12:12.620Z,96.80
2023-03-17T22:14:41.685Z,97.80
2023-03-17T22:17:08.376Z,96.30
2023-03-17T22:19:35.188Z,97.20
2023-03-17T22:22:02.638Z,96.50
2023-03-17T22:24:29.587Z,97.10
2023-03-17T22:26:56.700Z,96.70
2023-03-17T22:29:26.257Z,97.40
2023-03-17T22:31:53.183Z,97.80
2023-03-17T22:34:20.965Z,97.60
2023-03-17T22:36:47.848Z,97.00
2023-03-17T22:39:15.041Z,98.00
2023-03-17T22:41:42.091Z,97.90
2023-03-17T22:44:09.984Z,99.50
2023-03-17T22:46:38.634Z,99.20
2023-03-17T22:49:05.987Z,98.00
2023-03-17T22:51:32.732Z,98.80
2023-03-17T22:53:59.656Z,97.90
2023-03-17T22:56:26.983Z,97.00
2023-03-17T22:58:54.926Z,97.90
2023-03-17T23:01:25.601Z,97.60
2023-03-17T23:03:53.872Z,98.40
2023-03-17T23:06:21.376Z,97.90
2023-03-17T23:08:48.492Z,98.10
2023-03-17T23:11:18.585Z,98.70
2023-03-17T23:13:47.018Z,99.30
2023-03-17T23:16:14.656Z,98.70
2023-03-17T23:18:41.691Z,99.00
2023-03-17T23:21:10.069Z,99.00
2023-03-17T23:23:40.815Z,99.70
2023-03-17T23:26:07.619Z,99.90
2023-03-17T23:28:34.297Z,99.90
2023-03-17T23:31:02.776Z,99.90
2023-03-17T23:33:30.259Z,99.90
2023-03-17T23:35:57.214Z,99.90
2023-03-17T23:38:24.227Z,99.90
2023-03-17T23:40:51.048Z,99.90
2023-03-17T23:43:17.822Z,99.90
2023-03-17T23:45:45.461Z,99.90
2023-03-17T23:48:12.644Z,99.90
2023-03-17T23:50:40.993Z,99.90
2023-03-17T23:53:08.174Z,99.90
2023-03-17T23:55:35.639Z,99.90
2023-03-17T23:58:02.579Z,99.90
